LEAL/ALC METAR and TAF weather

Enter ICAO airport designator
Station Type Date Time Source
LEAL METAR 2021/10/24 23:00 UTC NOAA

LEAL 242300Z 28003KT 9999 FEW024 15/14 Q1022 NOSIG


Station Type Date Time Source
LEAL Decoded METAR 2021/10/24 23:00 UTC NOAA

Alicante / El Altet, Spain (LEAL) 38-17N 000-33W 31M
Oct 24, 2021 - 07:00 PM EDT / 2021.10.24 2300 UTC
Wind: from the W (280 degrees) at 3 MPH (3 KT):0
Visibility: greater than 7 mile(s):0
Sky conditions: mostly clear
Temperature: 59 F (15 C)
Dew Point: 57 F (14 C)
Relative Humidity: 93%
Pressure (altimeter): 30.18 in. Hg (1022 hPa)
ob: LEAL 242300Z 28003KT 9999 FEW024 15/14 Q1022 NOSIG
cycle: 23

Station Type Date Time Source
LEAL TAF 2021/10/24 18:27 UTC NOAA

TAF TAF LEAL 241700Z 2418/2518 13006KT 9999 FEW020 TX24/2512Z TN11/2506Z
BECMG 2420/2423 30010KT
BECMG 2510/2512 VRB03KT

Example: see airport list